createdAt,value
2023-02-19T00:03:41.992Z,98671.72
2023-02-19T00:08:49.897Z,98665.84
2023-02-19T00:13:57.610Z,98645.72
2023-02-19T00:19:04.081Z,98646.16
2023-02-19T00:24:15.047Z,98635.38
2023-02-19T00:29:21.567Z,98638.69
2023-02-19T00:34:26.474Z,98638.06
2023-02-19T00:39:34.134Z,98628.31
2023-02-19T00:44:39.159Z,98622.72
2023-02-19T00:49:44.124Z,98621.66
2023-02-19T00:54:51.665Z,98613.16
2023-02-19T00:59:56.676Z,98619.06
2023-02-19T01:05:01.879Z,98606.19
2023-02-19T01:10:13.248Z,98603.81
2023-02-19T01:15:18.308Z,98595.84
2023-02-19T01:20:23.232Z,98586.50
2023-02-19T01:25:30.810Z,98574.09
2023-02-19T01:30:37.337Z,98574.44
2023-02-19T01:35:42.620Z,98563.81
2023-02-19T01:40:57.725Z,98548.72
2023-02-19T01:46:03.015Z,98536.91
2023-02-19T01:51:12.408Z,98542.06
2023-02-19T01:56:22.730Z,98542.78
2023-02-19T02:01:27.773Z,98523.66
2023-02-19T02:06:37.187Z,98520.41
2023-02-19T02:11:49.664Z,98527.16
2023-02-19T02:17:00.527Z,98514.59
2023-02-19T02:22:15.377Z,98503.84
2023-02-19T02:27:38.089Z,98501.97
2023-02-19T02:32:53.555Z,98492.44
2023-02-19T02:38:05.386Z,98492.72
2023-02-19T02:43:10.715Z,98478.88
2023-02-19T02:48:30.571Z,98482.38
2023-02-19T02:53:52.806Z,98466.09
2023-02-19T02:59:01.269Z,98459.50
2023-02-19T03:04:15.465Z,98456.94
2023-02-19T03:09:30.202Z,98441.03
2023-02-19T03:14:54.737Z,98439.19
2023-02-19T03:20:06.410Z,98442.66
2023-02-19T03:25:29.188Z,98444.34
2023-02-19T03:30:38.551Z,98437.75
2023-02-19T03:35:51.608Z,98440.28
2023-02-19T03:41:10.496Z,98422.81
2023-02-19T03:46:23.414Z,98427.72
2023-02-19T03:51:39.888Z,98419.09
2023-02-19T03:56:52.017Z,98410.06
2023-02-19T04:02:01.124Z,98406.91
2023-02-19T04:07:09.433Z,98400.78
2023-02-19T04:12:18.638Z,98395.53
2023-02-19T04:17:30.599Z,98397.91
2023-02-19T04:22:40.169Z,98387.53
2023-02-19T04:27:48.856Z,98385.72
2023-02-19T04:32:53.815Z,98379.53
2023-02-19T04:38:01.412Z,98368.47
2023-02-19T04:43:06.368Z,98359.63
2023-02-19T04:48:12.117Z,98364.44
2023-02-19T04:53:19.695Z,98363.47
2023-02-19T04:58:24.686Z,98356.50
2023-02-19T05:03:29.683Z,98370.22
2023-02-19T05:08:37.503Z,98365.91
2023-02-19T05:13:43.453Z,98374.31
2023-02-19T05:18:49.579Z,98386.22
2023-02-19T05:23:57.320Z,98388.66
2023-02-19T05:29:02.624Z,98385.16
2023-02-19T05:34:07.674Z,98376.94
2023-02-19T05:39:16.480Z,98379.09
2023-02-19T05:44:21.465Z,98379.69
2023-02-19T05:49:26.992Z,98384.13
2023-02-19T05:54:35.127Z,98372.81
2023-02-19T05:59:40.113Z,98379.47
2023-02-19T06:04:45.939Z,98393.22
2023-02-19T06:09:56.125Z,98384.69
2023-02-19T06:15:01.211Z,98397.50
2023-02-19T06:20:06.573Z,98400.38
2023-02-19T06:25:15.031Z,98397.22
2023-02-19T06:30:19.998Z,98410.19
2023-02-19T06:35:25.445Z,98416.78
2023-02-19T06:40:33.026Z,98424.13
2023-02-19T06:45:38.315Z,98426.75
2023-02-19T06:50:43.301Z,98434.22
2023-02-19T06:55:58.812Z,98443.16
2023-02-19T07:01:03.949Z,98447.00
2023-02-19T07:06:09.589Z,98449.59
2023-02-19T07:11:19.409Z,98466.50
2023-02-19T07:16:24.437Z,98480.50
2023-02-19T07:21:32.126Z,98503.28
2023-02-19T07:26:39.822Z,98508.63
2023-02-19T07:31:46.220Z,98529.19
2023-02-19T07:36:51.169Z,98546.16
2023-02-19T07:41:58.751Z,98568.13
2023-02-19T07:47:05.221Z,98582.50
2023-02-19T07:52:10.110Z,98591.13
2023-02-19T07:57:17.927Z,98587.72
2023-02-19T08:02:36.331Z,98611.56
2023-02-19T08:07:41.442Z,98623.41
2023-02-19T08:13:01.697Z,98628.28
2023-02-19T08:18:08.430Z,98643.88
2023-02-19T08:23:15.822Z,98647.75
2023-02-19T08:28:23.450Z,98677.97
2023-02-19T08:33:30.878Z,98686.56
2023-02-19T08:38:39.836Z,98702.63
2023-02-19T08:43:47.694Z,98718.41
2023-02-19T08:48:52.683Z,98734.00
2023-02-19T08:53:59.703Z,98741.19
2023-02-19T08:59:07.187Z,98758.06
2023-02-19T09:04:19.697Z,98786.59
2023-02-19T09:09:28.993Z,98810.06
2023-02-19T09:14:38.019Z,98815.09
2023-02-19T09:19:43.169Z,98843.84
2023-02-19T09:24:49.172Z,98855.44
2023-02-19T09:29:57.642Z,98866.00
2023-02-19T09:35:03.331Z,98877.88
2023-02-19T09:40:21.848Z,98887.84
2023-02-19T09:45:30.579Z,98901.47
2023-02-19T09:50:49.512Z,98915.84
2023-02-19T09:55:55.660Z,98914.06
2023-02-19T10:01:06.066Z,98917.50
2023-02-19T10:06:23.618Z,98923.59
2023-02-19T10:11:29.063Z,98937.84
2023-02-19T10:16:37.356Z,98954.94
2023-02-19T10:21:42.562Z,98968.22
2023-02-19T10:26:47.580Z,98974.03
2023-02-19T10:32:17.369Z,98991.69
2023-02-19T10:37:22.510Z,98979.78
2023-02-19T10:42:27.443Z,98995.69
2023-02-19T10:47:36.050Z,99002.16
2023-02-19T10:52:42.497Z,99010.97
2023-02-19T10:57:52.655Z,99021.06
2023-02-19T11:03:26.128Z,99038.22
2023-02-19T11:08:34.284Z,99041.66
2023-02-19T11:13:39.880Z,99046.16
2023-02-19T11:18:47.685Z,99060.13
2023-02-19T11:23:55.333Z,99055.63
2023-02-19T11:29:01.861Z,99070.72
2023-02-19T11:34:30.315Z,99075.69
2023-02-19T11:39:35.952Z,99075.47
2023-02-19T11:44:51.494Z,99081.28
2023-02-19T11:50:06.180Z,99085.25
2023-02-19T11:55:21.153Z,99092.63
2023-02-19T12:00:30.249Z,99092.38
2023-02-19T12:05:53.243Z,99110.91
2023-02-19T12:11:22.428Z,99123.59
2023-02-19T12:16:34.297Z,99122.81
2023-02-19T12:22:03.881Z,99130.25
2023-02-19T12:27:22.857Z,99134.09
2023-02-19T12:32:52.922Z,99138.16
2023-02-19T12:38:07.078Z,99126.47
2023-02-19T12:43:19.869Z,99127.28
2023-02-19T12:48:32.474Z,99119.84
2023-02-19T12:53:45.699Z,99100.31
2023-02-19T12:58:56.710Z,99119.63
2023-02-19T13:04:19.050Z,99130.44
2023-02-19T13:09:33.906Z,99133.34
2023-02-19T13:14:44.989Z,99144.22
2023-02-19T13:19:53.518Z,99148.44
2023-02-19T13:25:03.680Z,99157.69
2023-02-19T13:30:26.142Z,99154.50
2023-02-19T13:35:59.434Z,99153.72
2023-02-19T13:41:10.081Z,99163.75
2023-02-19T13:46:19.545Z,99165.91
2023-02-19T13:51:51.516Z,99176.47
2023-02-19T13:57:28.663Z,99173.84
2023-02-19T14:02:36.999Z,99183.34
2023-02-19T14:07:57.964Z,99189.00
2023-02-19T14:13:05.727Z,99188.34
2023-02-19T14:18:43.470Z,99198.56
2023-02-19T14:23:55.488Z,99195.75
2023-02-19T14:29:04.428Z,99197.97
2023-02-19T14:34:19.643Z,99203.47
2023-02-19T14:39:29.127Z,99212.63
2023-02-19T14:44:48.731Z,99219.47
2023-02-19T14:50:01.071Z,99230.84
2023-02-19T14:55:12.596Z,99228.88
2023-02-19T15:00:29.912Z,99238.97
2023-02-19T15:05:36.802Z,99239.75
2023-02-19T15:10:47.062Z,99255.69
2023-02-19T15:15:59.164Z,99252.03
2023-02-19T15:21:08.204Z,99258.22
2023-02-19T15:26:23.656Z,99256.69
2023-02-19T15:31:31.501Z,99255.94
2023-02-19T15:36:41.983Z,99259.47
2023-02-19T15:41:51.270Z,99253.81
2023-02-19T15:47:02.683Z,99269.28
2023-02-19T15:52:13.834Z,99286.09
2023-02-19T15:57:34.656Z,99296.81
2023-02-19T16:02:43.334Z,99285.47
2023-02-19T16:07:48.234Z,99286.78
2023-02-19T16:13:03.617Z,99284.91
2023-02-19T16:18:17.091Z,99285.28
2023-02-19T16:23:25.408Z,99278.44
2023-02-19T16:28:32.389Z,99291.13
2023-02-19T16:33:42.165Z,99291.22
2023-02-19T16:39:25.257Z,99308.19
2023-02-19T16:44:35.828Z,99331.78
2023-02-19T16:49:48.612Z,99352.22
2023-02-19T16:54:53.682Z,99362.94
2023-02-19T17:00:01.502Z,99369.69
2023-02-19T17:05:09.467Z,99385.00
2023-02-19T17:10:16.915Z,99398.38
2023-02-19T17:15:21.974Z,99401.69
2023-02-19T17:20:32.345Z,99406.72
2023-02-19T17:25:37.336Z,99404.31
2023-02-19T17:30:42.681Z,99405.53
2023-02-19T17:35:50.294Z,99417.59
2023-02-19T17:40:56.129Z,99428.97
2023-02-19T17:46:01.470Z,99436.06
2023-02-19T17:51:09.818Z,99439.41
2023-02-19T17:56:19.529Z,99440.59
2023-02-19T18:01:25.158Z,99455.41
2023-02-19T18:06:33.091Z,99451.13
2023-02-19T18:11:38.149Z,99443.84
2023-02-19T18:16:50.283Z,99460.66
2023-02-19T18:21:58.273Z,99464.31
2023-02-19T18:27:06.078Z,99469.25
2023-02-19T18:32:11.213Z,99476.03
2023-02-19T18:37:19.231Z,99472.22
2023-02-19T18:42:24.923Z,99480.84
2023-02-19T18:47:30.112Z,99477.00
2023-02-19T18:52:37.836Z,99482.41
2023-02-19T18:57:44.187Z,99478.28
2023-02-19T19:02:52.179Z,99493.38
2023-02-19T19:08:01.965Z,99484.28
2023-02-19T19:13:08.243Z,99478.28
2023-02-19T19:18:13.870Z,99502.69
2023-02-19T19:23:22.276Z,99499.84
2023-02-19T19:28:30.221Z,99500.53
2023-02-19T19:33:36.126Z,99497.81
2023-02-19T19:38:44.508Z,99501.19
2023-02-19T19:43:55.453Z,99510.94
2023-02-19T19:49:01.588Z,99498.31
2023-02-19T19:54:10.638Z,99508.91
2023-02-19T19:59:17.894Z,99506.13
2023-02-19T20:04:25.494Z,99502.28
2023-02-19T20:09:37.511Z,99512.84
2023-02-19T20:14:46.410Z,99503.47
2023-02-19T20:19:52.119Z,99504.13
2023-02-19T20:25:02.021Z,99510.31
2023-02-19T20:30:11.374Z,99497.72
2023-02-19T20:35:18.146Z,99498.88
2023-02-19T20:40:30.597Z,99495.19
2023-02-19T20:45:35.784Z,99511.69
2023-02-19T20:50:43.282Z,99502.47
2023-02-19T20:55:51.292Z,99507.41
2023-02-19T21:00:56.764Z,99515.47
2023-02-19T21:06:01.809Z,99525.41
2023-02-19T21:11:10.565Z,99532.72
2023-02-19T21:16:16.503Z,99536.88
2023-02-19T21:21:25.360Z,99548.47
2023-02-19T21:26:39.485Z,99554.13
2023-02-19T21:31:45.926Z,99558.97
2023-02-19T21:36:52.937Z,99567.47
2023-02-19T21:42:00.921Z,99565.50
2023-02-19T21:47:05.914Z,99572.47
2023-02-19T21:52:13.566Z,99569.28
2023-02-19T21:57:22.573Z,99565.63
2023-02-19T22:02:27.643Z,99571.69
2023-02-19T22:07:35.447Z,99563.59
2023-02-19T22:12:44.050Z,99558.34
2023-02-19T22:17:49.015Z,99543.38
2023-02-19T22:22:53.954Z,99559.38
2023-02-19T22:28:01.615Z,99545.88
2023-02-19T22:33:07.065Z,99536.69
2023-02-19T22:38:12.147Z,99537.09
2023-02-19T22:43:22.533Z,99537.38
2023-02-19T22:48:30.156Z,99529.78
2023-02-19T22:53:35.528Z,99531.50
2023-02-19T22:58:43.409Z,99516.28
2023-02-19T23:03:50.274Z,99516.16
2023-02-19T23:08:55.670Z,99518.31
2023-02-19T23:14:04.004Z,99494.66
2023-02-19T23:19:11.751Z,99477.97
2023-02-19T23:24:17.618Z,99485.91
2023-02-19T23:29:27.352Z,99484.13
2023-02-19T23:34:32.505Z,99488.78
2023-02-19T23:39:37.499Z,99487.38
2023-02-19T23:44:45.621Z,99490.66
2023-02-19T23:49:52.568Z,99487.03
2023-02-19T23:54:58.872Z,99472.19
